sensor_id;sensor_type;location;lat;lon;timestamp;pressure;altitude;pressure_sealevel;temperature;humidity
50302;BME280;36550;50.472;19.744;2023-02-03T00:02:39;98541.14;;;-0.27;81.64
50302;BME280;36550;50.472;19.744;2023-02-03T00:05:23;98542.33;;;-0.34;81.94
50302;BME280;36550;50.472;19.744;2023-02-03T00:08:07;98550.78;;;-0.42;81.92
50302;BME280;36550;50.472;19.744;2023-02-03T00:10:51;98556.73;;;-0.44;81.94
50302;BME280;36550;50.472;19.744;2023-02-03T00:13:36;98559.86;;;-0.43;82.17
50302;BME280;36550;50.472;19.744;2023-02-03T00:16:19;98565.16;;;-0.44;82.10
50302;BME280;36550;50.472;19.744;2023-02-03T00:19:04;98559.33;;;-0.43;82.34
50302;BME280;36550;50.472;19.744;2023-02-03T00:21:48;98561.94;;;-0.45;82.36
50302;BME280;36550;50.472;19.744;2023-02-03T00:24:32;98564.73;;;-0.42;82.45
50302;BME280;36550;50.472;19.744;2023-02-03T00:27:16;98558.45;;;-0.37;82.63
50302;BME280;36550;50.472;19.744;2023-02-03T00:30:00;98564.60;;;-0.39;82.66
50302;BME280;36550;50.472;19.744;2023-02-03T00:32:43;98567.87;;;-0.41;82.85
50302;BME280;36550;50.472;19.744;2023-02-03T00:35:27;98569.16;;;-0.42;82.90
50302;BME280;36550;50.472;19.744;2023-02-03T00:38:11;98567.77;;;-0.38;82.84
50302;BME280;36550;50.472;19.744;2023-02-03T00:40:55;98572.27;;;-0.36;82.63
50302;BME280;36550;50.472;19.744;2023-02-03T00:43:39;98569.75;;;-0.39;82.56
50302;BME280;36550;50.472;19.744;2023-02-03T00:46:23;98570.48;;;-0.41;82.65
50302;BME280;36550;50.472;19.744;2023-02-03T00:49:07;98577.39;;;-0.40;82.49
50302;BME280;36550;50.472;19.744;2023-02-03T00:51:51;98580.63;;;-0.34;82.47
50302;BME280;36550;50.472;19.744;2023-02-03T00:54:35;98583.35;;;-0.30;82.29
50302;BME280;36550;50.472;19.744;2023-02-03T00:57:19;98585.95;;;-0.30;82.11
50302;BME280;36550;50.472;19.744;2023-02-03T01:00:04;98593.95;;;-0.33;81.96
50302;BME280;36550;50.472;19.744;2023-02-03T01:02:48;98591.20;;;-0.33;82.05
50302;BME280;36550;50.472;19.744;2023-02-03T01:05:32;98593.00;;;-0.30;82.11
50302;BME280;36550;50.472;19.744;2023-02-03T01:08:15;98591.83;;;-0.27;82.17
50302;BME280;36550;50.472;19.744;2023-02-03T01:11:04;98590.86;;;-0.26;82.11
50302;BME280;36550;50.472;19.744;2023-02-03T01:13:48;98591.05;;;-0.26;82.25
50302;BME280;36550;50.472;19.744;2023-02-03T01:16:32;98585.45;;;-0.27;82.19
50302;BME280;36550;50.472;19.744;2023-02-03T01:19:19;98578.19;;;-0.27;82.00
50302;BME280;36550;50.472;19.744;2023-02-03T01:22:03;98569.56;;;-0.25;82.01
50302;BME280;36550;50.472;19.744;2023-02-03T01:24:47;98568.86;;;-0.23;82.12
50302;BME280;36550;50.472;19.744;2023-02-03T01:27:31;98573.41;;;-0.20;82.11
50302;BME280;36550;50.472;19.744;2023-02-03T01:30:15;98576.30;;;-0.20;81.83
50302;BME280;36550;50.472;19.744;2023-02-03T01:32:59;98573.82;;;-0.21;81.81
50302;BME280;36550;50.472;19.744;2023-02-03T01:35:43;98570.39;;;-0.21;81.94
50302;BME280;36550;50.472;19.744;2023-02-03T01:38:27;98571.13;;;-0.23;82.00
50302;BME280;36550;50.472;19.744;2023-02-03T01:41:15;98572.35;;;-0.23;82.12
50302;BME280;36550;50.472;19.744;2023-02-03T01:43:59;98564.86;;;-0.24;82.09
50302;BME280;36550;50.472;19.744;2023-02-03T01:46:45;98565.65;;;-0.22;82.16
50302;BME280;36550;50.472;19.744;2023-02-03T01:49:31;98562.89;;;-0.19;82.06
50302;BME280;36550;50.472;19.744;2023-02-03T01:52:16;98568.61;;;-0.15;82.23
50302;BME280;36550;50.472;19.744;2023-02-03T01:55:01;98564.35;;;-0.12;82.06
50302;BME280;36550;50.472;19.744;2023-02-03T01:57:46;98557.64;;;-0.08;82.10
50302;BME280;36550;50.472;19.744;2023-02-03T02:00:31;98553.61;;;-0.02;82.37
50302;BME280;36550;50.472;19.744;2023-02-03T02:03:16;98548.17;;;0.06;82.46
50302;BME280;36550;50.472;19.744;2023-02-03T02:06:06;98547.27;;;0.15;82.64
50302;BME280;36550;50.472;19.744;2023-02-03T02:08:51;98545.58;;;0.16;82.06
50302;BME280;36550;50.472;19.744;2023-02-03T02:11:35;98541.46;;;0.14;81.89
50302;BME280;36550;50.472;19.744;2023-02-03T02:14:20;98541.43;;;0.13;82.07
50302;BME280;36550;50.472;19.744;2023-02-03T02:20:23;98535.67;;;0.10;82.07
50302;BME280;36550;50.472;19.744;2023-02-03T02:26:35;98537.02;;;0.07;82.05
50302;BME280;36550;50.472;19.744;2023-02-03T02:34:58;98533.16;;;0.15;81.92
50302;BME280;36550;50.472;19.744;2023-02-03T02:46:24;98525.98;;;0.25;81.66
50302;BME280;36550;50.472;19.744;2023-02-03T02:51:54;98523.65;;;0.21;81.93
50302;BME280;36550;50.472;19.744;2023-02-03T02:54:40;98522.33;;;0.20;82.04
50302;BME280;36550;50.472;19.744;2023-02-03T02:57:26;98519.34;;;0.17;81.98
50302;BME280;36550;50.472;19.744;2023-02-03T03:00:11;98512.14;;;0.12;81.85
50302;BME280;36550;50.472;19.744;2023-02-03T03:02:55;98499.62;;;0.05;81.54
50302;BME280;36550;50.472;19.744;2023-02-03T03:05:40;98494.27;;;-0.04;81.58
50302;BME280;36550;50.472;19.744;2023-02-03T03:08:30;98485.77;;;-0.08;81.58
50302;BME280;36550;50.472;19.744;2023-02-03T03:11:15;98487.09;;;-0.11;81.37
50302;BME280;36550;50.472;19.744;2023-02-03T03:14:00;98487.07;;;-0.16;81.35
50302;BME280;36550;50.472;19.744;2023-02-03T03:16:47;98493.52;;;-0.24;81.33
50302;BME280;36550;50.472;19.744;2023-02-03T03:19:43;98507.71;;;-0.32;81.36
50302;BME280;36550;50.472;19.744;2023-02-03T03:22:31;98517.13;;;-0.38;81.46
50302;BME280;36550;50.472;19.744;2023-02-03T03:25:18;98521.02;;;-0.45;81.48
50302;BME280;36550;50.472;19.744;2023-02-03T03:28:05;98525.64;;;-0.51;81.47
50302;BME280;36550;50.472;19.744;2023-02-03T03:30:51;98536.71;;;-0.57;81.25
50302;BME280;36550;50.472;19.744;2023-02-03T03:33:35;98540.14;;;-0.65;81.23
50302;BME280;36550;50.472;19.744;2023-02-03T03:39:14;98544.45;;;-0.84;80.71
50302;BME280;36550;50.472;19.744;2023-02-03T03:47:58;98523.47;;;-1.09;80.88
50302;BME280;36550;50.472;19.744;2023-02-03T03:50:45;98513.86;;;-1.11;80.94
50302;BME280;36550;50.472;19.744;2023-02-03T03:53:32;98505.14;;;-1.13;81.14
50302;BME280;36550;50.472;19.744;2023-02-03T03:56:18;98496.91;;;-1.13;81.28
50302;BME280;36550;50.472;19.744;2023-02-03T03:59:05;98492.11;;;-1.10;81.43
50302;BME280;36550;50.472;19.744;2023-02-03T04:01:49;98487.45;;;-1.06;81.74
50302;BME280;36550;50.472;19.744;2023-02-03T04:04:34;98488.30;;;-1.03;81.92
50302;BME280;36550;50.472;19.744;2023-02-03T04:07:19;98490.03;;;-1.01;82.01
50302;BME280;36550;50.472;19.744;2023-02-03T04:10:04;98491.48;;;-1.02;82.02
50302;BME280;36550;50.472;19.744;2023-02-03T04:12:49;98492.90;;;-1.04;82.02
50302;BME280;36550;50.472;19.744;2023-02-03T04:15:33;98494.98;;;-1.07;81.90
50302;BME280;36550;50.472;19.744;2023-02-03T04:18:17;98496.73;;;-1.11;81.90
50302;BME280;36550;50.472;19.744;2023-02-03T04:21:02;98501.61;;;-1.16;81.88
50302;BME280;36550;50.472;19.744;2023-02-03T04:23:46;98499.32;;;-1.19;81.97
50302;BME280;36550;50.472;19.744;2023-02-03T04:26:30;98492.52;;;-1.23;82.02
50302;BME280;36550;50.472;19.744;2023-02-03T04:29:14;98492.66;;;-1.26;82.10
50302;BME280;36550;50.472;19.744;2023-02-03T04:31:58;98494.23;;;-1.29;82.17
50302;BME280;36550;50.472;19.744;2023-02-03T04:34:42;98491.89;;;-1.33;82.00
50302;BME280;36550;50.472;19.744;2023-02-03T04:37:26;98483.77;;;-1.38;81.94
50302;BME280;36550;50.472;19.744;2023-02-03T04:40:09;98481.86;;;-1.39;81.83
50302;BME280;36550;50.472;19.744;2023-02-03T04:42:54;98477.74;;;-1.38;81.77
50302;BME280;36550;50.472;19.744;2023-02-03T04:45:37;98473.85;;;-1.38;81.45
50302;BME280;36550;50.472;19.744;2023-02-03T04:48:21;98472.22;;;-1.37;81.41
50302;BME280;36550;50.472;19.744;2023-02-03T04:51:05;98466.17;;;-1.33;81.61
50302;BME280;36550;50.472;19.744;2023-02-03T04:53:49;98466.34;;;-1.29;81.54
50302;BME280;36550;50.472;19.744;2023-02-03T04:56:33;98467.35;;;-1.25;81.47
50302;BME280;36550;50.472;19.744;2023-02-03T04:59:17;98466.13;;;-1.23;81.54
50302;BME280;36550;50.472;19.744;2023-02-03T05:02:01;98461.36;;;-1.20;81.42
50302;BME280;36550;50.472;19.744;2023-02-03T05:04:46;98462.48;;;-1.18;81.51
50302;BME280;36550;50.472;19.744;2023-02-03T05:07:30;98458.55;;;-1.14;81.46
50302;BME280;36550;50.472;19.744;2023-02-03T05:10:14;98455.93;;;-1.12;81.39
50302;BME280;36550;50.472;19.744;2023-02-03T05:12:58;98452.80;;;-1.10;81.45
50302;BME280;36550;50.472;19.744;2023-02-03T05:15:42;98443.50;;;-1.11;81.45
50302;BME280;36550;50.472;19.744;2023-02-03T05:18:25;98436.11;;;-1.15;81.39
50302;BME280;36550;50.472;19.744;2023-02-03T05:21:09;98423.36;;;-1.18;81.40
50302;BME280;36550;50.472;19.744;2023-02-03T05:23:53;98415.04;;;-1.21;81.49
50302;BME280;36550;50.472;19.744;2023-02-03T05:26:37;98413.47;;;-1.24;81.45
50302;BME280;36550;50.472;19.744;2023-02-03T05:29:21;98413.07;;;-1.29;81.42
50302;BME280;36550;50.472;19.744;2023-02-03T05:32:05;98417.58;;;-1.34;81.43
50302;BME280;36550;50.472;19.744;2023-02-03T05:34:49;98399.40;;;-1.37;81.54
50302;BME280;36550;50.472;19.744;2023-02-03T05:37:33;98401.67;;;-1.39;81.59
50302;BME280;36550;50.472;19.744;2023-02-03T05:40:17;98395.98;;;-1.41;81.65
50302;BME280;36550;50.472;19.744;2023-02-03T05:43:19;98399.73;;;-1.44;81.44
50302;BME280;36550;50.472;19.744;2023-02-03T05:46:03;98399.01;;;-1.48;81.44
50302;BME280;36550;50.472;19.744;2023-02-03T05:48:48;98401.64;;;-1.53;81.37
50302;BME280;36550;50.472;19.744;2023-02-03T05:51:32;98398.61;;;-1.57;81.26
50302;BME280;36550;50.472;19.744;2023-02-03T05:54:16;98395.92;;;-1.61;81.16
50302;BME280;36550;50.472;19.744;2023-02-03T05:56:59;98393.18;;;-1.67;81.11
50302;BME280;36550;50.472;19.744;2023-02-03T05:59:43;98388.09;;;-1.71;81.16
50302;BME280;36550;50.472;19.744;2023-02-03T06:02:27;98376.31;;;-1.75;81.07
50302;BME280;36550;50.472;19.744;2023-02-03T06:05:11;98364.61;;;-1.75;80.89
50302;BME280;36550;50.472;19.744;2023-02-03T06:07:55;98352.39;;;-1.70;80.86
50302;BME280;36550;50.472;19.744;2023-02-03T06:10:39;98347.39;;;-1.68;80.77
50302;BME280;36550;50.472;19.744;2023-02-03T06:13:22;98344.38;;;-1.64;80.83
50302;BME280;36550;50.472;19.744;2023-02-03T06:16:07;98342.41;;;-1.60;80.87
50302;BME280;36550;50.472;19.744;2023-02-03T06:18:51;98338.42;;;-1.56;80.79
50302;BME280;36550;50.472;19.744;2023-02-03T06:21:35;98340.10;;;-1.51;80.76
50302;BME280;36550;50.472;19.744;2023-02-03T06:24:20;98340.72;;;-1.47;80.80
50302;BME280;36550;50.472;19.744;2023-02-03T06:27:04;98338.67;;;-1.42;80.87
50302;BME280;36550;50.472;19.744;2023-02-03T06:29:47;98334.19;;;-1.38;80.86
50302;BME280;36550;50.472;19.744;2023-02-03T06:32:31;98335.59;;;-1.37;80.80
50302;BME280;36550;50.472;19.744;2023-02-03T06:35:15;98335.08;;;-1.37;80.67
50302;BME280;36550;50.472;19.744;2023-02-03T06:38:00;98333.54;;;-1.37;80.71
50302;BME280;36550;50.472;19.744;2023-02-03T06:40:45;98329.23;;;-1.37;80.69
50302;BME280;36550;50.472;19.744;2023-02-03T06:43:29;98330.38;;;-1.37;80.76
50302;BME280;36550;50.472;19.744;2023-02-03T06:46:13;98327.49;;;-1.35;80.78
50302;BME280;36550;50.472;19.744;2023-02-03T06:48:57;98322.25;;;-1.34;80.71
50302;BME280;36550;50.472;19.744;2023-02-03T06:51:41;98314.19;;;-1.32;80.88
50302;BME280;36550;50.472;19.744;2023-02-03T06:54:25;98313.66;;;-1.30;80.72
50302;BME280;36550;50.472;19.744;2023-02-03T06:57:09;98303.36;;;-1.28;80.69
50302;BME280;36550;50.472;19.744;2023-02-03T06:59:53;98302.59;;;-1.26;80.65
50302;BME280;36550;50.472;19.744;2023-02-03T07:02:37;98300.77;;;-1.21;80.82
50302;BME280;36550;50.472;19.744;2023-02-03T07:05:21;98298.48;;;-1.17;80.68
50302;BME280;36550;50.472;19.744;2023-02-03T07:08:06;98294.31;;;-1.13;80.57
50302;BME280;36550;50.472;19.744;2023-02-03T07:10:54;98287.06;;;-1.08;80.61
50302;BME280;36550;50.472;19.744;2023-02-03T07:13:37;98274.35;;;-1.01;80.54
50302;BME280;36550;50.472;19.744;2023-02-03T07:16:21;98274.21;;;-0.91;80.23
50302;BME280;36550;50.472;19.744;2023-02-03T07:19:05;98264.17;;;-0.76;80.18
50302;BME280;36550;50.472;19.744;2023-02-03T07:21:49;98264.11;;;-0.62;80.14
50302;BME280;36550;50.472;19.744;2023-02-03T07:24:34;98259.98;;;-0.49;80.20
50302;BME280;36550;50.472;19.744;2023-02-03T07:27:17;98251.93;;;-0.35;79.96
50302;BME280;36550;50.472;19.744;2023-02-03T07:30:03;98250.98;;;-0.25;79.64
50302;BME280;36550;50.472;19.744;2023-02-03T07:32:51;98246.35;;;-0.16;79.34
50302;BME280;36550;50.472;19.744;2023-02-03T07:35:35;98243.25;;;-0.10;79.00
50302;BME280;36550;50.472;19.744;2023-02-03T07:38:20;98229.52;;;-0.05;78.88
50302;BME280;36550;50.472;19.744;2023-02-03T07:41:04;98223.17;;;-0.02;78.74
50302;BME280;36550;50.472;19.744;2023-02-03T07:43:48;98222.15;;;-0.00;78.43
50302;BME280;36550;50.472;19.744;2023-02-03T07:46:32;98217.55;;;0.03;78.24
50302;BME280;36550;50.472;19.744;2023-02-03T07:49:16;98211.52;;;0.06;78.35
50302;BME280;36550;50.472;19.744;2023-02-03T07:52:00;98207.05;;;0.08;77.92
50302;BME280;36550;50.472;19.744;2023-02-03T07:54:44;98199.66;;;0.12;77.87
50302;BME280;36550;50.472;19.744;2023-02-03T07:57:28;98193.33;;;0.19;77.31
50302;BME280;36550;50.472;19.744;2023-02-03T08:00:12;98189.61;;;0.23;76.57
50302;BME280;36550;50.472;19.744;2023-02-03T08:02:57;98186.29;;;0.28;76.71
50302;BME280;36550;50.472;19.744;2023-02-03T08:05:41;98174.59;;;0.31;76.60
50302;BME280;36550;50.472;19.744;2023-02-03T08:08:24;98167.02;;;0.33;76.51
50302;BME280;36550;50.472;19.744;2023-02-03T08:11:08;98165.77;;;0.36;76.64
50302;BME280;36550;50.472;19.744;2023-02-03T08:13:52;98162.52;;;0.42;76.51
50302;BME280;36550;50.472;19.744;2023-02-03T08:16:36;98159.65;;;0.49;76.46
50302;BME280;36550;50.472;19.744;2023-02-03T08:19:20;98147.52;;;0.57;77.08
50302;BME280;36550;50.472;19.744;2023-02-03T08:22:04;98136.15;;;0.67;77.13
50302;BME280;36550;50.472;19.744;2023-02-03T08:24:48;98125.94;;;0.79;76.88
50302;BME280;36550;50.472;19.744;2023-02-03T08:27:32;98117.08;;;0.92;76.36
50302;BME280;36550;50.472;19.744;2023-02-03T08:30:16;98102.84;;;1.04;76.28
50302;BME280;36550;50.472;19.744;2023-02-03T08:33:00;98096.81;;;1.11;75.14
50302;BME280;36550;50.472;19.744;2023-02-03T08:35:48;98086.78;;;1.18;75.35
50302;BME280;36550;50.472;19.744;2023-02-03T08:38:32;98080.29;;;1.22;74.90
50302;BME280;36550;50.472;19.744;2023-02-03T08:41:16;98074.48;;;1.26;74.19
50302;BME280;36550;50.472;19.744;2023-02-03T08:44:01;98072.57;;;1.26;74.00
50302;BME280;36550;50.472;19.744;2023-02-03T08:46:48;98069.25;;;1.27;73.71
50302;BME280;36550;50.472;19.744;2023-02-03T08:49:32;98062.91;;;1.26;73.36
50302;BME280;36550;50.472;19.744;2023-02-03T08:52:18;98058.25;;;1.26;73.50
50302;BME280;36550;50.472;19.744;2023-02-03T08:55:02;98047.64;;;1.24;73.26
50302;BME280;36550;50.472;19.744;2023-02-03T08:57:46;98053.98;;;1.28;73.27
50302;BME280;36550;50.472;19.744;2023-02-03T09:00:30;98053.47;;;1.30;72.76
50302;BME280;36550;50.472;19.744;2023-02-03T09:03:14;98055.44;;;1.36;72.74
50302;BME280;36550;50.472;19.744;2023-02-03T09:05:58;98057.83;;;1.46;72.64
50302;BME280;36550;50.472;19.744;2023-02-03T09:08:43;98052.88;;;1.56;71.81
50302;BME280;36550;50.472;19.744;2023-02-03T09:11:27;98052.33;;;1.63;71.70
50302;BME280;36550;50.472;19.744;2023-02-03T09:14:11;98060.44;;;1.61;71.33
50302;BME280;36550;50.472;19.744;2023-02-03T09:16:54;98062.76;;;1.54;71.66
50302;BME280;36550;50.472;19.744;2023-02-03T09:19:38;98060.11;;;1.48;71.97
50302;BME280;36550;50.472;19.744;2023-02-03T09:22:22;98064.31;;;1.46;72.27
50302;BME280;36550;50.472;19.744;2023-02-03T09:25:09;98059.69;;;1.46;71.76
50302;BME280;36550;50.472;19.744;2023-02-03T09:27:52;98061.62;;;1.55;71.70
50302;BME280;36550;50.472;19.744;2023-02-03T09:30:36;98060.96;;;1.64;71.67
50302;BME280;36550;50.472;19.744;2023-02-03T09:33:20;98053.80;;;1.69;71.71
50302;BME280;36550;50.472;19.744;2023-02-03T09:36:04;98049.20;;;1.73;71.52
50302;BME280;36550;50.472;19.744;2023-02-03T09:38:49;98050.27;;;1.76;71.74
50302;BME280;36550;50.472;19.744;2023-02-03T09:47:27;98040.03;;;1.88;71.97
50302;BME280;36550;50.472;19.744;2023-02-03T09:50:12;98033.23;;;1.95;72.06
50302;BME280;36550;50.472;19.744;2023-02-03T09:52:57;98028.53;;;2.01;72.36
50302;BME280;36550;50.472;19.744;2023-02-03T09:55:42;98020.17;;;2.08;72.66
50302;BME280;36550;50.472;19.744;2023-02-03T09:58:27;98011.90;;;2.15;72.56
50302;BME280;36550;50.472;19.744;2023-02-03T10:01:14;98009.48;;;2.25;72.89
50302;BME280;36550;50.472;19.744;2023-02-03T10:04:02;97999.95;;;2.37;73.02
50302;BME280;36550;50.472;19.744;2023-02-03T10:06:48;97988.41;;;2.46;73.23
50302;BME280;36550;50.472;19.744;2023-02-03T10:09:47;97985.23;;;2.57;73.60
50302;BME280;36550;50.472;19.744;2023-02-03T10:18:11;97951.86;;;2.74;73.87
50302;BME280;36550;50.472;19.744;2023-02-03T10:20:57;97940.16;;;2.75;74.03
50302;BME280;36550;50.472;19.744;2023-02-03T10:23:42;97928.29;;;2.76;74.17
50302;BME280;36550;50.472;19.744;2023-02-03T10:26:27;97918.52;;;2.80;74.39
50302;BME280;36550;50.472;19.744;2023-02-03T10:29:19;97907.92;;;2.78;74.40
50302;BME280;36550;50.472;19.744;2023-02-03T10:32:10;97898.39;;;2.77;74.90
50302;BME280;36550;50.472;19.744;2023-02-03T10:34:54;97896.11;;;2.71;75.02
50302;BME280;36550;50.472;19.744;2023-02-03T10:37:40;97883.83;;;2.64;75.19
50302;BME280;36550;50.472;19.744;2023-02-03T10:40:26;97876.94;;;2.53;75.38
50302;BME280;36550;50.472;19.744;2023-02-03T10:43:11;97863.19;;;2.39;75.58
50302;BME280;36550;50.472;19.744;2023-02-03T10:46:14;97848.27;;;2.28;75.99
50302;BME280;36550;50.472;19.744;2023-02-03T10:48:58;97837.16;;;2.20;76.27
50302;BME280;36550;50.472;19.744;2023-02-03T10:51:47;97830.48;;;2.18;76.51
50302;BME280;36550;50.472;19.744;2023-02-03T10:54:33;97821.58;;;2.16;76.44
50302;BME280;36550;50.472;19.744;2023-02-03T10:57:18;97812.76;;;2.18;76.92
50302;BME280;36550;50.472;19.744;2023-02-03T11:00:07;97807.39;;;2.24;77.16
50302;BME280;36550;50.472;19.744;2023-02-03T11:02:56;97792.27;;;2.27;77.27
50302;BME280;36550;50.472;19.744;2023-02-03T11:05:41;97776.67;;;2.26;77.33
50302;BME280;36550;50.472;19.744;2023-02-03T11:08:28;97768.33;;;2.25;77.51
50302;BME280;36550;50.472;19.744;2023-02-03T11:11:14;97753.98;;;2.20;77.65
50302;BME280;36550;50.472;19.744;2023-02-03T11:16:45;97734.02;;;2.08;77.97
50302;BME280;36550;50.472;19.744;2023-02-03T11:19:30;97718.63;;;2.05;78.15
50302;BME280;36550;50.472;19.744;2023-02-03T11:25:19;97696.70;;;2.04;78.41
50302;BME280;36550;50.472;19.744;2023-02-03T11:28:09;97690.33;;;2.01;78.36
50302;BME280;36550;50.472;19.744;2023-02-03T11:30:55;97678.93;;;1.96;78.56
50302;BME280;36550;50.472;19.744;2023-02-03T11:33:40;97673.17;;;1.87;78.52
50302;BME280;36550;50.472;19.744;2023-02-03T11:36:24;97659.63;;;1.77;78.77
50302;BME280;36550;50.472;19.744;2023-02-03T11:39:16;97650.48;;;1.66;79.02
50302;BME280;36550;50.472;19.744;2023-02-03T11:42:00;97639.61;;;1.57;78.95
50302;BME280;36550;50.472;19.744;2023-02-03T11:44:44;97631.52;;;1.57;79.09
50302;BME280;36550;50.472;19.744;2023-02-03T11:47:28;97617.32;;;1.58;79.30
50302;BME280;36550;50.472;19.744;2023-02-03T12:07:16;97548.83;;;1.59;80.14
50302;BME280;36550;50.472;19.744;2023-02-03T12:13:17;97521.23;;;1.69;80.48
50302;BME280;36550;50.472;19.744;2023-02-03T12:16:11;97513.39;;;1.67;80.49
50302;BME280;36550;50.472;19.744;2023-02-03T12:19:07;97507.77;;;1.65;80.58
50302;BME280;36550;50.472;19.744;2023-02-03T12:22:05;97499.81;;;1.67;80.75
50302;BME280;36550;50.472;19.744;2023-02-03T12:28:02;97472.39;;;1.58;81.08
50302;BME280;36550;50.472;19.744;2023-02-03T12:30:57;97467.70;;;1.59;81.08
50302;BME280;36550;50.472;19.744;2023-02-03T12:33:52;97457.59;;;1.57;81.34
50302;BME280;36550;50.472;19.744;2023-02-03T12:36:42;97449.69;;;1.55;81.48
50302;BME280;36550;50.472;19.744;2023-02-03T12:39:29;97438.78;;;1.51;81.75
50302;BME280;36550;50.472;19.744;2023-02-03T12:45:16;97420.60;;;1.45;82.28
50302;BME280;36550;50.472;19.744;2023-02-03T12:48:15;97402.23;;;1.43;82.50
50302;BME280;36550;50.472;19.744;2023-02-03T12:51:01;97393.70;;;1.39;82.33
50302;BME280;36550;50.472;19.744;2023-02-03T12:53:49;97391.97;;;1.34;82.70
50302;BME280;36550;50.472;19.744;2023-02-03T12:56:40;97377.73;;;1.28;83.13
50302;BME280;36550;50.472;19.744;2023-02-03T12:59:26;97372.80;;;1.24;83.29
50302;BME280;36550;50.472;19.744;2023-02-03T13:02:17;97356.79;;;1.19;83.41
50302;BME280;36550;50.472;19.744;2023-02-03T13:05:06;97348.34;;;1.12;84.13
50302;BME280;36550;50.472;19.744;2023-02-03T13:07:58;97341.52;;;1.06;84.40
50302;BME280;36550;50.472;19.744;2023-02-03T13:10:49;97339.44;;;0.99;84.56
50302;BME280;36550;50.472;19.744;2023-02-03T13:13:53;97327.65;;;0.94;85.27
50302;BME280;36550;50.472;19.744;2023-02-03T13:16:39;97312.88;;;0.89;85.77
50302;BME280;36550;50.472;19.744;2023-02-03T13:19:32;97299.51;;;0.86;86.02
50302;BME280;36550;50.472;19.744;2023-02-03T13:22:38;97284.71;;;0.84;86.14
50302;BME280;36550;50.472;19.744;2023-02-03T13:42:29;97222.09;;;0.76;88.90
50302;BME280;36550;50.472;19.744;2023-02-03T13:48:08;97202.18;;;0.68;89.78
50302;BME280;36550;50.472;19.744;2023-02-03T13:54:41;97183.41;;;0.66;89.65
50302;BME280;36550;50.472;19.744;2023-02-03T13:57:04;97165.61;;;0.63;89.71
50302;BME280;36550;50.472;19.744;2023-02-03T13:59:49;97158.41;;;0.61;90.21
50302;BME280;36550;50.472;19.744;2023-02-03T14:02:42;97153.04;;;0.59;89.92
50302;BME280;36550;50.472;19.744;2023-02-03T14:05:37;97143.80;;;0.56;89.96
50302;BME280;36550;50.472;19.744;2023-02-03T14:17:00;97101.83;;;0.47;91.22
50302;BME280;36550;50.472;19.744;2023-02-03T14:22:34;97087.69;;;0.44;92.37
50302;BME280;36550;50.472;19.744;2023-02-03T14:25:22;97087.96;;;0.44;92.57
50302;BME280;36550;50.472;19.744;2023-02-03T14:28:14;97077.98;;;0.44;92.82
50302;BME280;36550;50.472;19.744;2023-02-03T14:31:00;97069.77;;;0.44;92.64
50302;BME280;36550;50.472;19.744;2023-02-03T14:36:42;97056.04;;;0.44;92.30
50302;BME280;36550;50.472;19.744;2023-02-03T14:56:50;97032.52;;;0.51;91.53
50302;BME280;36550;50.472;19.744;2023-02-03T15:00:04;97021.83;;;0.50;92.12
50302;BME280;36550;50.472;19.744;2023-02-03T15:05:58;97025.57;;;0.50;91.85
50302;BME280;36550;50.472;19.744;2023-02-03T15:08:46;97026.67;;;0.54;91.61
50302;BME280;36550;50.472;19.744;2023-02-03T15:11:31;97026.77;;;0.56;91.41
50302;BME280;36550;50.472;19.744;2023-02-03T15:14:22;97030.23;;;0.60;91.23
50302;BME280;36550;50.472;19.744;2023-02-03T15:17:11;97026.88;;;0.63;91.04
50302;BME280;36550;50.472;19.744;2023-02-03T15:19:55;97020.36;;;0.66;90.97
50302;BME280;36550;50.472;19.744;2023-02-03T15:22:39;97024.48;;;0.69;90.68
50302;BME280;36550;50.472;19.744;2023-02-03T15:25:23;97030.50;;;0.73;90.60
50302;BME280;36550;50.472;19.744;2023-02-03T15:28:09;97033.05;;;0.76;90.57
50302;BME280;36550;50.472;19.744;2023-02-03T15:31:16;97029.73;;;0.80;90.80
50302;BME280;36550;50.472;19.744;2023-02-03T15:34:22;97032.05;;;0.85;90.68
50302;BME280;36550;50.472;19.744;2023-02-03T15:37:05;97036.65;;;0.88;90.79
50302;BME280;36550;50.472;19.744;2023-02-03T15:42:37;97032.84;;;0.91;90.95
50302;BME280;36550;50.472;19.744;2023-02-03T15:48:13;97035.05;;;0.86;91.42
50302;BME280;36550;50.472;19.744;2023-02-03T15:51:08;97021.55;;;0.88;91.42
50302;BME280;36550;50.472;19.744;2023-02-03T15:56:42;97026.77;;;0.95;91.55
50302;BME280;36550;50.472;19.744;2023-02-03T15:59:34;97037.14;;;1.01;91.69
50302;BME280;36550;50.472;19.744;2023-02-03T16:02:20;97041.52;;;1.05;91.91
50302;BME280;36550;50.472;19.744;2023-02-03T16:05:05;97047.09;;;1.09;92.21
50302;BME280;36550;50.472;19.744;2023-02-03T16:07:56;97042.05;;;1.12;92.13
50302;BME280;36550;50.472;19.744;2023-02-03T16:10:40;97039.30;;;1.12;92.20
50302;BME280;36550;50.472;19.744;2023-02-03T16:13:25;97036.67;;;1.12;91.91
50302;BME280;36550;50.472;19.744;2023-02-03T16:16:14;97033.65;;;1.13;92.00
50302;BME280;36550;50.472;19.744;2023-02-03T16:19:04;97040.50;;;1.13;92.22
50302;BME280;36550;50.472;19.744;2023-02-03T16:36:11;97055.98;;;1.31;91.81
50302;BME280;36550;50.472;19.744;2023-02-03T16:39:13;97058.91;;;1.34;92.16
50302;BME280;36550;50.472;19.744;2023-02-03T16:42:20;97059.67;;;1.39;92.38
50302;BME280;36550;50.472;19.744;2023-02-03T16:45:22;97060.06;;;1.39;92.45
50302;BME280;36550;50.472;19.744;2023-02-03T16:48:25;97063.31;;;1.39;92.38
50302;BME280;36550;50.472;19.744;2023-02-03T16:51:31;97062.17;;;1.42;92.29
50302;BME280;36550;50.472;19.744;2023-02-03T16:54:16;97061.55;;;1.44;92.09
50302;BME280;36550;50.472;19.744;2023-02-03T16:57:01;97061.98;;;1.46;92.01
50302;BME280;36550;50.472;19.744;2023-02-03T16:59:44;97064.08;;;1.44;92.37
50302;BME280;36550;50.472;19.744;2023-02-03T17:02:28;97072.12;;;1.43;92.29
50302;BME280;36550;50.472;19.744;2023-02-03T17:05:12;97076.06;;;1.45;92.18
50302;BME280;36550;50.472;19.744;2023-02-03T17:07:56;97082.58;;;1.48;92.18
50302;BME280;36550;50.472;19.744;2023-02-03T17:10:41;97085.96;;;1.49;92.24
50302;BME280;36550;50.472;19.744;2023-02-03T17:13:25;97085.84;;;1.50;92.44